createdAt,value
2022-08-18T00:01:10.399Z,97.38
2022-08-18T00:03:55.753Z,97.17
2022-08-18T00:06:28.475Z,96.57
2022-08-18T00:08:57.987Z,97.10
2022-08-18T00:11:26.083Z,97.01
2022-08-18T00:13:53.876Z,96.96
2022-08-18T00:16:23.122Z,96.72
2022-08-18T00:18:51.003Z,96.59
2022-08-18T00:21:19.107Z,97.14
2022-08-18T00:23:46.991Z,98.52
2022-08-18T00:26:14.781Z,98.40
2022-08-18T00:28:42.643Z,98.84
2022-08-18T00:31:10.464Z,99.09
2022-08-18T00:33:39.611Z,98.91
2022-08-18T00:36:07.418Z,99.29
2022-08-18T00:38:35.190Z,99.77
2022-08-18T00:41:03.150Z,100.00
2022-08-18T00:43:36.538Z,100.00
2022-08-18T00:46:08.178Z,100.00
2022-08-18T00:48:36.146Z,100.00
2022-08-18T00:51:11.345Z,100.00
2022-08-18T00:53:45.735Z,100.00
2022-08-18T00:56:17.695Z,100.00
2022-08-18T00:58:50.482Z,100.00
2022-08-18T01:01:23.222Z,100.00
2022-08-18T01:03:55.167Z,100.00
2022-08-18T01:06:32.354Z,100.00
2022-08-18T01:09:01.771Z,100.00
2022-08-18T01:11:30.176Z,100.00
2022-08-18T01:13:59.134Z,100.00
2022-08-18T01:16:56.658Z,100.00
2022-08-18T01:19:44.417Z,100.00
2022-08-18T01:22:19.247Z,100.00
2022-08-18T01:25:11.543Z,100.00
2022-08-18T01:27:41.864Z,100.00
2022-08-18T01:30:18.179Z,100.00
2022-08-18T01:32:46.882Z,100.00
2022-08-18T01:35:18.197Z,100.00
2022-08-18T01:37:46.076Z,100.00
2022-08-18T01:41:21.759Z,100.00
2022-08-18T01:43:05.708Z,100.00
2022-08-18T01:45:34.489Z,100.00
2022-08-18T01:48:04.471Z,100.00
2022-08-18T01:50:35.128Z,100.00
2022-08-18T01:53:05.456Z,100.00
2022-08-18T01:55:35.115Z,100.00
2022-08-18T01:58:03.405Z,100.00
2022-08-18T02:00:32.216Z,100.00
2022-08-18T02:03:02.893Z,100.00
2022-08-18T02:05:34.659Z,100.00
2022-08-18T02:08:03.583Z,100.00
2022-08-18T02:10:32.068Z,100.00
2022-08-18T02:13:01.126Z,100.00
2022-08-18T02:15:29.071Z,100.00
2022-08-18T02:17:56.867Z,100.00
2022-08-18T02:20:25.313Z,100.00
2022-08-18T02:22:53.658Z,100.00
2022-08-18T02:25:21.539Z,100.00
2022-08-18T02:27:49.373Z,100.00
2022-08-18T02:30:20.015Z,100.00
2022-08-18T02:32:48.418Z,100.00
2022-08-18T02:35:16.245Z,100.00
2022-08-18T02:37:47.763Z,100.00
2022-08-18T02:40:16.513Z,100.00
2022-08-18T02:42:44.987Z,100.00
2022-08-18T02:45:13.756Z,100.00
2022-08-18T02:47:44.271Z,100.00
2022-08-18T02:50:12.918Z,100.00
2022-08-18T02:52:41.296Z,100.00
2022-08-18T02:55:10.937Z,100.00
2022-08-18T02:57:43.477Z,100.00
2022-08-18T03:00:15.053Z,100.00
2022-08-18T03:02:48.653Z,100.00
2022-08-18T03:05:16.908Z,100.00
2022-08-18T03:07:45.438Z,100.00
2022-08-18T03:10:31.373Z,100.00
2022-08-18T03:13:01.880Z,100.00
2022-08-18T03:15:29.695Z,100.00
2022-08-18T03:17:59.404Z,100.00
2022-08-18T03:20:30.321Z,100.00
2022-08-18T03:22:59.262Z,100.00
2022-08-18T03:25:27.123Z,100.00
2022-08-18T03:27:54.935Z,100.00
2022-08-18T03:30:23.619Z,100.00
2022-08-18T03:32:52.158Z,100.00
2022-08-18T03:35:21.350Z,100.00
2022-08-18T03:37:49.135Z,100.00
2022-08-18T03:43:23.762Z,100.00
2022-08-18T03:46:03.404Z,100.00
2022-08-18T03:48:33.098Z,100.00
2022-08-18T03:51:09.440Z,100.00
2022-08-18T03:53:41.515Z,100.00
2022-08-18T03:56:17.602Z,100.00
2022-08-18T03:58:47.585Z,100.00
2022-08-18T04:01:26.259Z,100.00
2022-08-18T04:03:57.002Z,100.00
2022-08-18T04:06:30.336Z,100.00
2022-08-18T04:09:01.316Z,100.00
2022-08-18T04:11:29.619Z,100.00
2022-08-18T04:14:03.918Z,100.00
2022-08-18T04:16:33.160Z,100.00
2022-08-18T04:19:03.536Z,100.00
2022-08-18T04:21:34.678Z,100.00
2022-08-18T04:24:09.864Z,100.00
2022-08-18T04:26:50.154Z,100.00
2022-08-18T04:29:21.173Z,100.00
2022-08-18T04:31:50.042Z,100.00
2022-08-18T04:34:18.553Z,100.00
2022-08-18T04:36:47.871Z,100.00
2022-08-18T04:39:15.659Z,100.00
2022-08-18T04:41:44.875Z,100.00
2022-08-18T04:44:14.808Z,100.00
2022-08-18T04:46:46.212Z,100.00
2022-08-18T04:49:14.400Z,100.00
2022-08-18T04:52:26.949Z,100.00
2022-08-18T04:54:38.351Z,100.00
2022-08-18T04:57:11.278Z,100.00
2022-08-18T04:59:41.336Z,100.00
2022-08-18T05:02:14.206Z,100.00
2022-08-18T05:04:47.206Z,100.00
2022-08-18T05:07:18.783Z,100.00
2022-08-18T05:09:48.244Z,100.00
2022-08-18T05:12:17.134Z,100.00
2022-08-18T05:14:46.375Z,100.00
2022-08-18T05:17:16.294Z,100.00
2022-08-18T05:19:45.751Z,100.00
2022-08-18T05:22:18.347Z,100.00
2022-08-18T05:24:48.543Z,100.00
2022-08-18T05:27:16.443Z,100.00
2022-08-18T05:29:46.138Z,100.00
2022-08-18T05:32:30.275Z,100.00
2022-08-18T05:35:06.140Z,100.00
2022-08-18T05:37:43.906Z,100.00
2022-08-18T05:40:15.997Z,100.00
2022-08-18T05:42:44.733Z,100.00
2022-08-18T05:45:16.568Z,100.00
2022-08-18T05:47:44.710Z,100.00
2022-08-18T05:50:16.396Z,100.00
2022-08-18T05:52:52.346Z,100.00
2022-08-18T05:55:47.969Z,100.00
2022-08-18T05:58:34.724Z,100.00
2022-08-18T06:01:05.778Z,100.00
2022-08-18T06:03:45.162Z,100.00
2022-08-18T06:06:18.260Z,100.00
2022-08-18T06:08:51.360Z,100.00
2022-08-18T06:11:22.775Z,100.00
2022-08-18T06:13:54.214Z,100.00
2022-08-18T06:16:39.924Z,100.00
2022-08-18T06:19:25.576Z,100.00
2022-08-18T06:22:03.703Z,100.00
2022-08-18T06:24:39.057Z,100.00
2022-08-18T06:27:17.672Z,100.00
2022-08-18T06:29:55.870Z,100.00
2022-08-18T06:32:36.800Z,100.00
2022-08-18T06:35:18.111Z,100.00
2022-08-18T06:38:16.620Z,100.00
2022-08-18T06:40:44.455Z,100.00
2022-08-18T06:43:17.060Z,100.00
2022-08-18T06:45:52.030Z,100.00
2022-08-18T06:48:28.311Z,100.00
2022-08-18T06:51:00.574Z,100.00
2022-08-18T06:53:53.552Z,100.00
2022-08-18T06:56:26.625Z,100.00
2022-08-18T06:58:56.475Z,100.00
2022-08-18T07:01:25.838Z,100.00
2022-08-18T07:03:58.188Z,100.00
2022-08-18T07:06:31.357Z,100.00
2022-08-18T07:09:24.047Z,100.00
2022-08-18T07:12:07.479Z,100.00
2022-08-18T07:14:46.841Z,100.00
2022-08-18T07:17:22.211Z,100.00
2022-08-18T07:20:20.208Z,100.00
2022-08-18T07:22:57.518Z,100.00
2022-08-18T07:25:30.406Z,100.00
2022-08-18T07:28:01.472Z,100.00
2022-08-18T07:30:34.511Z,100.00
2022-08-18T07:33:12.106Z,100.00
2022-08-18T07:35:45.722Z,100.00
2022-08-18T07:38:41.637Z,100.00
2022-08-18T07:41:15.572Z,100.00
2022-08-18T07:43:53.392Z,100.00
2022-08-18T07:46:28.116Z,100.00
2022-08-18T07:48:58.689Z,100.00
2022-08-18T07:51:37.561Z,100.00
2022-08-18T07:54:31.069Z,100.00
2022-08-18T07:57:07.079Z,100.00
2022-08-18T07:59:44.760Z,100.00
2022-08-18T08:02:29.991Z,100.00
2022-08-18T08:05:07.209Z,100.00
2022-08-18T08:07:43.885Z,100.00
2022-08-18T08:10:32.492Z,100.00
2022-08-18T08:13:12.683Z,100.00
2022-08-18T08:15:50.365Z,100.00
2022-08-18T08:18:26.347Z,100.00
2022-08-18T08:20:58.370Z,100.00
2022-08-18T08:23:31.933Z,100.00
2022-08-18T08:26:23.360Z,100.00
2022-08-18T08:29:02.538Z,100.00
2022-08-18T08:31:39.162Z,100.00
2022-08-18T08:34:15.815Z,100.00
2022-08-18T08:36:46.436Z,100.00
2022-08-18T08:39:22.385Z,100.00
2022-08-18T08:42:29.697Z,100.00
2022-08-18T08:44:59.168Z,100.00
2022-08-18T08:47:33.341Z,100.00
2022-08-18T08:50:05.315Z,100.00
2022-08-18T08:52:42.213Z,100.00
2022-08-18T08:55:16.288Z,100.00
2022-08-18T08:57:49.708Z,100.00
2022-08-18T09:00:17.889Z,100.00
2022-08-18T09:03:00.081Z,100.00
2022-08-18T09:05:35.977Z,100.00
2022-08-18T09:08:32.720Z,100.00
2022-08-18T09:11:18.985Z,100.00
2022-08-18T09:14:14.530Z,100.00
2022-08-18T09:16:53.984Z,100.00
2022-08-18T09:19:40.628Z,100.00
2022-08-18T09:22:20.940Z,100.00
2022-08-18T09:24:51.581Z,100.00
2022-08-18T09:27:48.673Z,99.82
2022-08-18T09:30:42.420Z,98.69
2022-08-18T09:33:22.909Z,99.32
2022-08-18T09:36:10.529Z,99.48
2022-08-18T09:39:08.653Z,98.78
2022-08-18T09:44:57.492Z,98.17
2022-08-18T09:48:03.591Z,96.92
2022-08-18T09:50:55.200Z,96.85
2022-08-18T09:53:54.347Z,94.86
2022-08-18T09:57:19.523Z,95.80
2022-08-18T10:00:12.876Z,95.85
2022-08-18T10:03:31.416Z,96.46
2022-08-18T10:09:36.517Z,92.51
2022-08-18T10:12:43.636Z,92.70
2022-08-18T10:15:39.430Z,90.02
2022-08-18T10:18:42.809Z,89.98
2022-08-18T10:21:21.055Z,89.03
2022-08-18T10:24:14.826Z,87.07
2022-08-18T10:27:10.876Z,87.90
2022-08-18T10:29:53.329Z,86.83
2022-08-18T10:32:54.307Z,86.46
2022-08-18T10:35:53.343Z,86.09
2022-08-18T10:38:30.761Z,86.54
2022-08-18T10:41:09.851Z,87.01
2022-08-18T10:43:46.187Z,87.57
2022-08-18T10:46:29.423Z,86.04
2022-08-18T10:49:04.476Z,85.92
2022-08-18T10:51:59.340Z,85.40
2022-08-18T10:54:51.092Z,84.86
2022-08-18T10:57:32.807Z,83.55
2022-08-18T11:00:09.704Z,83.61
2022-08-18T11:03:30.125Z,82.97
2022-08-18T11:06:03.734Z,83.83
2022-08-18T11:08:36.907Z,83.10
2022-08-18T11:11:34.594Z,82.61
2022-08-18T11:14:26.976Z,81.18
2022-08-18T11:17:04.150Z,80.14
2022-08-18T11:19:42.077Z,80.41
2022-08-18T11:22:31.077Z,78.21
2022-08-18T11:25:01.306Z,78.70
2022-08-18T11:27:35.271Z,77.17
2022-08-18T11:30:06.191Z,76.57
2022-08-18T11:32:51.869Z,76.83
2022-08-18T11:35:25.102Z,77.23
2022-08-18T11:37:58.306Z,77.02
2022-08-18T11:46:29.635Z,76.82
2022-08-18T11:49:02.149Z,76.49
2022-08-18T11:51:34.521Z,76.96
2022-08-18T11:54:23.204Z,77.49
2022-08-18T11:56:51.428Z,77.04
2022-08-18T12:02:23.816Z,76.30
2022-08-18T12:04:55.052Z,75.86
2022-08-18T12:07:29.838Z,75.64
2022-08-18T12:10:19.408Z,76.70
2022-08-18T12:12:53.666Z,77.18
2022-08-18T12:15:43.885Z,76.40
2022-08-18T12:18:25.937Z,77.74
2022-08-18T12:20:58.313Z,77.61
2022-08-18T12:23:26.649Z,77.89
2022-08-18T12:25:54.745Z,78.01
2022-08-18T12:28:22.834Z,77.57
2022-08-18T12:30:57.505Z,78.28
2022-08-18T12:33:47.814Z,77.37
2022-08-18T12:36:19.034Z,77.61
2022-08-18T12:38:52.303Z,76.88
2022-08-18T12:41:24.616Z,76.30
2022-08-18T12:43:58.419Z,75.33
2022-08-18T12:46:27.848Z,74.66
2022-08-18T12:49:00.727Z,74.88
2022-08-18T12:51:31.790Z,73.74
2022-08-18T12:54:02.910Z,71.26
2022-08-18T12:56:32.714Z,68.13
2022-08-18T12:59:06.876Z,65.19
2022-08-18T13:01:37.667Z,65.71
2022-08-18T13:04:12.124Z,63.87
2022-08-18T13:06:59.194Z,64.27
2022-08-18T13:09:47.984Z,63.36
2022-08-18T13:12:19.234Z,62.17
2022-08-18T13:14:49.741Z,61.47
2022-08-18T13:17:32.639Z,64.05
2022-08-18T13:20:07.778Z,64.11
2022-08-18T13:22:40.316Z,63.04
2022-08-18T13:25:11.003Z,63.75
2022-08-18T13:30:30.904Z,61.86
2022-08-18T13:33:05.464Z,63.18
2022-08-18T13:35:44.589Z,63.19
2022-08-18T13:38:20.667Z,62.34
2022-08-18T13:40:50.683Z,61.08
2022-08-18T13:43:23.547Z,61.69
2022-08-18T13:45:53.271Z,61.46
2022-08-18T13:48:25.497Z,61.35
2022-08-18T13:50:56.015Z,60.75
2022-08-18T13:53:27.618Z,61.76
2022-08-18T13:55:57.940Z,61.46
2022-08-18T13:58:27.267Z,61.01
2022-08-18T14:01:22.877Z,60.93
2022-08-18T14:03:48.105Z,60.81
2022-08-18T14:06:21.956Z,61.02
2022-08-18T14:08:52.968Z,61.03
2022-08-18T14:11:23.720Z,62.26
2022-08-18T14:13:54.114Z,62.34
2022-08-18T14:16:23.215Z,63.18
2022-08-18T14:19:12.591Z,63.59
2022-08-18T14:22:02.987Z,63.52
2022-08-18T14:24:50.767Z,64.22
2022-08-18T14:27:19.786Z,64.18
2022-08-18T14:29:49.753Z,64.64
2022-08-18T14:32:29.045Z,64.38
2022-08-18T14:35:00.526Z,62.79
2022-08-18T14:37:29.272Z,62.63
2022-08-18T14:39:59.314Z,61.79
2022-08-18T14:42:40.917Z,61.18
2022-08-18T14:45:26.566Z,60.79
2022-08-18T14:47:59.352Z,59.78
2022-08-18T14:50:27.807Z,60.11
2022-08-18T14:52:55.652Z,59.42
2022-08-18T14:55:25.029Z,60.28
2022-08-18T14:57:54.845Z,59.68
2022-08-18T15:00:28.056Z,59.30
2022-08-18T15:02:57.406Z,58.83
2022-08-18T15:05:32.136Z,58.96
2022-08-18T15:08:04.787Z,59.96
2022-08-18T15:10:34.497Z,59.50
2022-08-18T15:13:03.831Z,59.38
2022-08-18T15:15:42.227Z,58.34
2022-08-18T15:18:23.263Z,57.04
2022-08-18T15:21:10.204Z,57.73
2022-08-18T15:23:58.292Z,57.72
2022-08-18T15:26:27.802Z,57.24
2022-08-18T15:29:00.218Z,56.44
2022-08-18T15:34:20.604Z,55.44
2022-08-18T15:36:49.411Z,56.30
2022-08-18T15:39:17.991Z,55.51
2022-08-18T15:41:49.317Z,55.82
2022-08-18T15:44:19.630Z,55.66
2022-08-18T15:46:53.066Z,55.21
2022-08-18T15:49:21.906Z,55.43
2022-08-18T15:51:56.960Z,56.49
2022-08-18T15:54:25.334Z,56.81
2022-08-18T15:56:58.138Z,56.17
2022-08-18T15:59:26.905Z,57.60
2022-08-18T16:02:02.384Z,57.52
2022-08-18T16:04:30.300Z,57.33
2022-08-18T16:06:59.583Z,57.51
2022-08-18T16:09:27.412Z,56.37
2022-08-18T16:12:00.271Z,56.51
2022-08-18T16:14:28.339Z,56.60
2022-08-18T16:16:56.260Z,56.29
2022-08-18T16:19:25.609Z,56.23
2022-08-18T16:21:56.553Z,55.13
2022-08-18T16:24:24.556Z,55.71
2022-08-18T16:26:52.445Z,56.05
2022-08-18T16:29:24.038Z,56.36
2022-08-18T16:31:52.399Z,56.37
2022-08-18T16:34:22.711Z,56.57
2022-08-18T16:36:50.574Z,56.85
2022-08-18T16:39:19.594Z,56.62
2022-08-18T16:41:49.947Z,57.65
2022-08-18T16:44:17.667Z,56.84
2022-08-18T16:46:46.852Z,56.43
2022-08-18T16:49:14.825Z,56.93
2022-08-18T16:51:45.308Z,57.42
2022-08-18T16:54:14.490Z,57.34
2022-08-18T16:56:42.235Z,57.58
2022-08-18T16:59:27.790Z,57.34
2022-08-18T17:02:14.591Z,57.63
2022-08-18T17:04:42.448Z,57.76
2022-08-18T17:07:10.247Z,57.93
2022-08-18T17:09:38.014Z,58.17
2022-08-18T17:12:06.227Z,58.90
2022-08-18T17:14:34.142Z,60.14
2022-08-18T17:17:03.518Z,59.97
2022-08-18T17:19:34.250Z,60.30
2022-08-18T17:22:03.374Z,59.77
2022-08-18T17:24:32.532Z,59.50
2022-08-18T17:27:26.105Z,60.69
2022-08-18T17:30:01.732Z,60.15
2022-08-18T17:35:15.159Z,61.72
2022-08-18T17:37:52.173Z,62.44
2022-08-18T17:40:28.594Z,62.51
2022-08-18T17:42:57.249Z,63.59
2022-08-18T17:45:25.335Z,64.79
2022-08-18T17:48:01.209Z,64.05
2022-08-18T17:50:52.103Z,64.49
2022-08-18T17:53:21.386Z,64.90
2022-08-18T17:55:55.100Z,64.53
2022-08-18T17:58:30.664Z,64.26
2022-08-18T18:00:58.464Z,65.26
2022-08-18T18:03:28.348Z,67.02
2022-08-18T18:06:03.708Z,65.77
2022-08-18T18:08:52.987Z,65.38
2022-08-18T18:11:31.268Z,66.59
2022-08-18T18:14:00.441Z,67.28
2022-08-18T18:16:34.902Z,67.82
2022-08-18T18:19:07.320Z,67.18
2022-08-18T18:22:00.703Z,68.49
2022-08-18T18:24:32.112Z,67.56
2022-08-18T18:27:00.137Z,68.09
2022-08-18T18:29:35.626Z,67.69
2022-08-18T18:32:07.682Z,67.97
2022-08-18T18:34:40.140Z,68.59
2022-08-18T18:37:26.254Z,69.72
2022-08-18T18:39:59.598Z,71.62
2022-08-18T18:42:29.491Z,72.49
2022-08-18T18:44:59.562Z,73.82
2022-08-18T18:47:44.326Z,75.02
2022-08-18T18:50:21.883Z,75.68
2022-08-18T18:53:00.193Z,76.28
2022-08-18T18:55:32.045Z,76.49
2022-08-18T18:58:12.150Z,76.15
2022-08-18T19:00:53.627Z,75.61
2022-08-18T19:03:27.283Z,75.48
2022-08-18T19:06:13.099Z,76.97
2022-08-18T19:08:50.513Z,77.27
2022-08-18T19:11:25.822Z,76.12
2022-08-18T19:14:00.641Z,76.19
2022-08-18T19:16:34.668Z,76.66
2022-08-18T19:19:36.327Z,76.88
2022-08-18T19:22:06.438Z,77.83
2022-08-18T19:24:40.248Z,78.04
2022-08-18T19:27:15.996Z,77.48
2022-08-18T19:29:47.400Z,77.41
2022-08-18T19:32:19.775Z,77.32
2022-08-18T19:34:51.489Z,77.08
2022-08-18T19:37:31.253Z,78.27
2022-08-18T19:40:09.244Z,79.17
2022-08-18T19:42:42.815Z,79.12
2022-08-18T19:45:23.382Z,79.68
2022-08-18T19:47:57.810Z,79.61
2022-08-18T19:50:32.479Z,80.38
2022-08-18T19:53:20.446Z,81.32
2022-08-18T19:56:12.363Z,80.57
2022-08-18T19:59:15.544Z,80.68
2022-08-18T20:01:58.500Z,81.11
2022-08-18T20:04:43.623Z,81.94
2022-08-18T20:07:31.372Z,82.27
2022-08-18T20:10:15.579Z,82.77
2022-08-18T20:13:01.002Z,82.72
2022-08-18T20:15:31.078Z,82.43
2022-08-18T20:18:06.422Z,82.33
2022-08-18T20:20:38.098Z,82.78
2022-08-18T20:23:31.166Z,82.75
2022-08-18T20:26:00.621Z,83.33
2022-08-18T20:28:46.125Z,81.84
2022-08-18T20:31:17.444Z,82.68
2022-08-18T20:33:54.141Z,81.77
2022-08-18T20:36:29.436Z,82.72
2022-08-18T20:38:59.106Z,83.74
2022-08-18T20:41:47.180Z,84.60
2022-08-18T20:44:52.053Z,83.70
2022-08-18T20:47:42.599Z,84.65
2022-08-18T20:50:36.631Z,84.96
2022-08-18T20:53:13.075Z,84.97
2022-08-18T20:55:49.222Z,84.03
2022-08-18T20:58:27.674Z,84.38
2022-08-18T21:00:58.205Z,84.47
2022-08-18T21:03:36.632Z,83.53
2022-08-18T21:06:05.461Z,83.60
2022-08-18T21:08:35.768Z,83.69
2022-08-18T21:11:09.180Z,83.55
2022-08-18T21:13:51.483Z,83.30
2022-08-18T21:16:37.959Z,83.75
2022-08-18T21:19:13.787Z,83.51
2022-08-18T21:21:46.775Z,84.14
2022-08-18T21:24:28.152Z,84.28
2022-08-18T21:26:58.583Z,84.59
2022-08-18T21:29:34.489Z,84.14
2022-08-18T21:32:19.432Z,83.97
2022-08-18T21:34:50.979Z,83.30
2022-08-18T21:37:20.224Z,83.40
2022-08-18T21:39:51.090Z,84.01
2022-08-18T21:42:22.255Z,83.58
2022-08-18T21:44:54.286Z,83.97
2022-08-18T21:47:26.130Z,84.96
2022-08-18T21:50:08.277Z,84.57
2022-08-18T21:52:38.522Z,84.05
2022-08-18T21:55:14.787Z,85.01
2022-08-18T21:57:52.725Z,86.11
2022-08-18T22:00:26.914Z,85.72
2022-08-18T22:03:12.536Z,86.41
2022-08-18T22:05:58.683Z,86.53
2022-08-18T22:08:29.736Z,87.01
2022-08-18T22:11:59.911Z,86.75
2022-08-18T22:14:53.502Z,86.12
2022-08-18T22:17:31.530Z,86.38
2022-08-18T22:20:38.684Z,86.74
2022-08-18T22:23:43.832Z,86.33
2022-08-18T22:26:18.890Z,87.13
2022-08-18T22:28:59.729Z,87.13
2022-08-18T22:31:30.877Z,87.17
2022-08-18T22:34:07.233Z,86.69
2022-08-18T22:36:37.443Z,86.87
2022-08-18T22:39:08.682Z,86.76
2022-08-18T22:41:36.756Z,87.08
2022-08-18T22:44:05.506Z,87.05
2022-08-18T22:46:33.696Z,87.48
2022-08-18T22:49:03.386Z,86.96
2022-08-18T22:51:32.932Z,87.31
2022-08-18T22:54:00.845Z,87.23
2022-08-18T22:56:34.428Z,86.61
2022-08-18T22:59:12.150Z,87.06
2022-08-18T23:01:45.464Z,87.90
2022-08-18T23:04:16.300Z,88.15
2022-08-18T23:06:51.128Z,87.60
2022-08-18T23:09:25.111Z,87.39
2022-08-18T23:11:54.622Z,87.30
2022-08-18T23:14:23.062Z,87.14
2022-08-18T23:16:51.137Z,87.54
2022-08-18T23:19:22.177Z,88.03
2022-08-18T23:21:51.618Z,88.35
2022-08-18T23:24:21.194Z,89.21
2022-08-18T23:26:49.240Z,88.65
2022-08-18T23:29:17.224Z,88.35
2022-08-18T23:31:46.006Z,88.74
2022-08-18T23:34:17.225Z,89.01
2022-08-18T23:36:52.413Z,88.91
2022-08-18T23:39:20.216Z,89.07
2022-08-18T23:41:48.130Z,89.58
2022-08-18T23:44:16.718Z,89.88
2022-08-18T23:46:44.835Z,90.00
2022-08-18T23:49:14.796Z,89.80
2022-08-18T23:51:46.074Z,89.45
2022-08-18T23:54:17.718Z,90.28
2022-08-18T23:56:47.611Z,90.84
2022-08-18T23:59:17.302Z,90.70
